Connell, Washington
Current Conditions -  °F | °C
As of 12:53 AM on Sunday 21 Dec 2014 (Local Time) from KPSC Reporting Station
Broken Clouds Broken Clouds  
Wind Chill: 57°   Ceiling: 7000
Heat Index: 57°   Visibility: 10mi
Dew Point: 50°   Wind: 24mph
Humidity: 77%   Direction: 220°SW
Pressure: 29.52"   Gusts: 31mph
Location:  46.66°N, 118.86°W
Report Text: KPSC 210853Z AUTO 22021G27KT 10SM BKN070 14/10 A2952 RMK AO2 PK WND 23029/0838 RAB0755E01B39E48 SLP995 P0000 60000 T01390100 56019
Loading
Personal Weather Stations






























Interactive Weather Map New forecast layout! Learn more

10-Day Weather Forecast

Advertisements
Track Severe Weather on mobile